Redstone Army Air Field
KHUA : now visible

Airfield :











YOU CAN JOIN US ON...

 
LOGIN :

Register | Disclaimer

   EN    FR    IT 

 









Legend :    VFR   Marginal VFR   IFR   Intensive IFR   Very Intensive IFR
Visi :
Ceiling :
>= 8 km
>= 3000ft
5 to 8 km
1000 to 3000 ft
1500m to 5 km
500 to 1000 ft
800 to 1500m
200 to 500 ft
< 800m
< 200 ft
Symbols :   Thunderstorms  Fog  Heavy snow  Heavy precipitations  Wind > 20 kt







- Airport Elevation : 684 ft


KHUA - Redstone Army Air Field

CURRENT METAR :
  • 171158Z AUTO 21006KT 10SM FEW044 SCT065 OVC080 23/22 A3006 RMK AO2 LTG DSNT W-NW RAE00RAB34E48 SLP175 P0001 60002 70031 T02310224 10231 20224 50009 $

EXPIRED METARs :
  • 171058Z AUTO 17005KT 8SM -RA VCTS FEW027 BKN060 OVC100 22/22 A3004 RMK AO2 RAB35 SLP167 P0000 T02240217 $
  • 171038Z AUTO 00000KT 8SM -RA VCTS FEW019 SCT028 SCT038 BKN060 BKN090 OVC110 23/22 A3005 RMK AO2 RAB35 SLP170 $
  • 170958Z AUTO 33010KT 10SM BKN027 BKN046 OVC065 23/22 A3006 RMK AO2 LTG DSNT N-NE AND W CIG 027V046 BKN027 V SCT SLP173 T02270218 $

TAF N/A
KZME FIR / North America



MET'MAP, your aeronautical weather chart ! - Copyright ORBIFLY December 2007 - Disclaimer

ORBIFLY MET'MAP TEAM :

Programming & Development : Alexandra Zaïnal
Concept & Development : Baudouin d'Aumeries
Co-Development & Prog : Marc-Olivier Méhu
Technical & hardware support : Manuel Goepfert

Contact : metmap@orbifly.com




SOURCES & CREDITS :

   NOAA       Earth
Advisory